createdAt,value
2022-09-09T00:00:11.326Z,17.26
2022-09-09T00:05:43.161Z,17.19
2022-09-09T00:13:35.179Z,0.00
2022-09-09T00:19:06.520Z,17.17
2022-09-09T00:24:37.934Z,17.20
2022-09-09T00:30:09.778Z,17.20
2022-09-09T00:41:10.934Z,17.10
2022-09-09T00:46:42.872Z,17.02
2022-09-09T00:52:14.494Z,16.95
2022-09-09T00:57:46.755Z,16.93
2022-09-09T01:03:18.602Z,16.84
2022-09-09T01:08:50.284Z,16.80
2022-09-09T01:16:41.941Z,0.00
2022-09-09T01:22:14.226Z,16.69
2022-09-09T01:24:37.283Z,0.00
2022-09-09T01:30:08.692Z,16.71
2022-09-09T01:35:40.359Z,16.72
2022-09-09T01:46:43.742Z,16.71
2022-09-09T01:52:15.776Z,16.69
2022-09-09T01:57:47.708Z,16.65
2022-09-09T02:03:19.576Z,16.61
2022-09-09T02:08:51.205Z,16.61
2022-09-09T02:14:22.605Z,16.59
2022-09-09T02:19:54.510Z,16.57
2022-09-09T02:25:26.142Z,16.57
2022-09-09T02:30:57.890Z,16.54
2022-09-09T02:36:29.009Z,16.50
2022-09-09T02:42:00.691Z,16.48
2022-09-09T02:47:32.360Z,16.51
2022-09-09T02:53:04.059Z,16.51
2022-09-09T02:58:36.388Z,16.52
2022-09-09T03:04:07.642Z,16.55
2022-09-09T03:09:39.326Z,16.59
2022-09-09T03:15:11.310Z,16.64
2022-09-09T03:20:42.990Z,16.75
2022-09-09T03:26:14.723Z,16.78
2022-09-09T03:31:46.556Z,16.91
2022-09-09T03:37:18.023Z,16.99
2022-09-09T03:42:49.539Z,17.16
2022-09-09T03:48:21.384Z,17.22
2022-09-09T03:53:53.158Z,17.27
2022-09-09T03:59:25.261Z,17.35
2022-09-09T04:04:56.715Z,17.41
2022-09-09T04:10:28.553Z,17.45
2022-09-09T04:16:00.252Z,17.52
2022-09-09T04:21:32.065Z,17.60
2022-09-09T04:23:55.622Z,17.64
2022-09-09T04:29:27.074Z,17.71
2022-09-09T04:34:58.899Z,17.76
2022-09-09T04:40:30.641Z,17.79
2022-09-09T04:46:02.492Z,17.79
2022-09-09T04:51:33.746Z,17.81
2022-09-09T04:57:05.817Z,17.74
2022-09-09T05:02:37.733Z,17.71
2022-09-09T05:08:09.529Z,17.67
2022-09-09T05:13:41.685Z,17.74
2022-09-09T05:19:13.061Z,17.76
2022-09-09T05:24:44.924Z,17.69
2022-09-09T05:30:16.964Z,17.69
2022-09-09T05:35:48.581Z,17.78
2022-09-09T05:41:20.351Z,17.89
2022-09-09T05:46:51.963Z,18.17
2022-09-09T05:52:23.875Z,18.34
2022-09-09T05:57:55.658Z,18.62
2022-09-09T06:03:27.333Z,18.69
2022-09-09T06:08:58.616Z,18.85
2022-09-09T06:14:29.973Z,18.89
2022-09-09T06:20:01.766Z,19.02
2022-09-09T06:25:33.639Z,19.02
2022-09-09T06:36:37.112Z,19.14
2022-09-09T06:42:08.946Z,19.27
2022-09-09T06:47:40.485Z,19.34
2022-09-09T06:53:11.767Z,19.45
2022-09-09T06:58:43.041Z,19.50
2022-09-09T07:04:14.711Z,19.52
2022-09-09T07:09:46.205Z,19.50
2022-09-09T07:20:49.357Z,18.96
2022-09-09T07:26:20.741Z,18.71
2022-09-09T07:31:52.560Z,18.62
2022-09-09T07:37:23.993Z,18.64
2022-09-09T07:42:55.967Z,18.71
2022-09-09T07:48:27.536Z,18.89
2022-09-09T07:53:59.602Z,18.96
2022-09-09T08:05:03.337Z,19.17
2022-09-09T08:10:34.899Z,19.44
2022-09-09T08:16:06.582Z,19.55
2022-09-09T08:21:38.441Z,19.70
2022-09-09T08:27:10.123Z,19.70
2022-09-09T08:32:44.865Z,19.68
2022-09-09T08:38:13.897Z,19.70
2022-09-09T08:43:45.533Z,19.73
2022-09-09T08:49:17.292Z,19.70
2022-09-09T08:54:52.395Z,19.99
2022-09-09T09:00:20.611Z,20.27
2022-09-09T09:05:52.217Z,20.78
2022-09-09T09:11:24.024Z,21.02
2022-09-09T09:16:56.059Z,21.61
2022-09-09T09:22:27.537Z,21.97
2022-09-09T09:27:58.988Z,22.55
2022-09-09T09:44:33.911Z,23.23
2022-09-09T09:50:05.605Z,23.27
2022-09-09T09:55:36.963Z,23.20
2022-09-09T10:01:08.964Z,23.12
2022-09-09T10:06:40.673Z,23.12
2022-09-09T10:12:12.607Z,23.14
2022-09-09T10:17:44.343Z,23.16
2022-09-09T10:23:16.042Z,23.19
2022-09-09T10:28:47.688Z,23.48
2022-09-09T10:34:19.408Z,23.68
2022-09-09T10:39:51.391Z,24.05
2022-09-09T10:45:23.228Z,24.13
2022-09-09T10:51:04.726Z,24.33
2022-09-09T10:56:26.847Z,24.47
2022-09-09T11:01:58.419Z,24.81
2022-09-09T11:07:29.716Z,24.98
2022-09-09T11:13:01.278Z,25.16
2022-09-09T11:18:32.974Z,25.22
2022-09-09T11:24:04.798Z,25.72
2022-09-09T11:29:36.635Z,25.93
2022-09-09T11:35:08.227Z,26.22
2022-09-09T11:40:39.787Z,26.36
2022-09-09T11:46:11.638Z,26.72
2022-09-09T11:51:43.359Z,26.72
2022-09-09T11:57:15.194Z,26.77
2022-09-09T12:02:46.905Z,26.81
2022-09-09T12:08:18.670Z,26.91
2022-09-09T12:13:50.244Z,26.86
2022-09-09T12:19:23.371Z,26.69
2022-09-09T12:24:53.715Z,26.61
2022-09-09T12:30:25.314Z,26.55
2022-09-09T12:35:57.147Z,26.64
2022-09-09T12:41:28.995Z,27.03
2022-09-09T12:52:30.027Z,26.96
2022-09-09T12:58:02.103Z,26.98
2022-09-09T13:03:33.745Z,26.86
2022-09-09T13:09:05.575Z,26.84
2022-09-09T13:14:37.235Z,26.94
2022-09-09T13:20:08.878Z,26.91
2022-09-09T13:25:43.888Z,26.86
2022-09-09T13:31:14.010Z,26.95
2022-09-09T13:36:46.090Z,27.05
2022-09-09T13:42:18.125Z,27.02
2022-09-09T13:53:21.635Z,26.92
2022-09-09T13:58:53.355Z,26.95
2022-09-09T14:04:25.214Z,26.94
2022-09-09T14:09:56.911Z,26.79
2022-09-09T14:15:28.857Z,26.62
2022-09-09T14:21:01.008Z,26.06
2022-09-09T14:26:33.081Z,25.71
2022-09-09T14:32:07.374Z,25.37
2022-09-09T14:37:36.877Z,25.23
2022-09-09T14:43:08.818Z,25.03
2022-09-09T14:48:41.012Z,24.95
2022-09-09T14:54:12.487Z,24.82
2022-09-09T14:59:44.051Z,24.68
2022-09-09T15:02:07.272Z,24.55
2022-09-09T15:07:39.005Z,24.43
2022-09-09T15:13:10.474Z,24.31
2022-09-09T15:18:42.058Z,24.41
2022-09-09T15:24:13.431Z,24.61
2022-09-09T15:29:45.327Z,24.65
2022-09-09T15:35:17.089Z,24.64
2022-09-09T15:40:48.806Z,24.55
2022-09-09T15:46:20.667Z,24.23
2022-09-09T15:51:52.617Z,24.12
2022-09-09T15:57:24.256Z,23.86
2022-09-09T16:02:56.022Z,23.71
2022-09-09T16:10:49.667Z,23.29
2022-09-09T16:16:21.540Z,23.27
2022-09-09T16:21:53.495Z,23.36
2022-09-09T16:27:25.206Z,23.44
2022-09-09T16:32:56.971Z,23.57
2022-09-09T16:38:28.752Z,23.50
2022-09-09T16:44:00.783Z,23.42
2022-09-09T16:49:32.244Z,23.19
2022-09-09T16:55:03.983Z,23.03
2022-09-09T17:00:35.258Z,22.64
2022-09-09T17:06:06.496Z,22.45
2022-09-09T17:11:37.837Z,22.12
2022-09-09T17:22:38.754Z,21.55
2022-09-09T17:28:10.421Z,21.38
2022-09-09T17:33:41.957Z,21.09
2022-09-09T17:39:13.386Z,20.93
2022-09-09T17:44:44.824Z,20.69
2022-09-09T17:50:16.577Z,20.56
2022-09-09T17:55:52.505Z,20.33
2022-09-09T18:01:19.624Z,20.25
2022-09-09T18:06:50.936Z,20.05
2022-09-09T18:12:22.031Z,19.97
2022-09-09T18:17:53.475Z,19.85
2022-09-09T18:23:25.311Z,19.79
2022-09-09T18:28:57.040Z,19.79
2022-09-09T18:34:29.038Z,19.78
2022-09-09T18:40:00.476Z,19.76
2022-09-09T18:45:32.029Z,19.73
2022-09-09T18:51:03.952Z,19.68
2022-09-09T18:56:35.872Z,19.66
2022-09-09T19:02:07.586Z,19.62
2022-09-09T19:07:39.235Z,19.66
2022-09-09T19:13:10.940Z,19.45
2022-09-09T19:18:42.752Z,19.33
2022-09-09T19:24:14.626Z,18.78
2022-09-09T19:29:46.157Z,18.43
2022-09-09T19:35:17.406Z,17.86
2022-09-09T19:46:20.734Z,17.35
2022-09-09T19:51:52.330Z,17.24
2022-09-09T19:57:23.819Z,17.06
2022-09-09T20:03:17.647Z,16.96
2022-09-09T20:08:27.039Z,16.75
2022-09-09T20:13:58.652Z,16.67
2022-09-09T20:19:30.012Z,16.47
2022-09-09T20:25:01.161Z,16.41
2022-09-09T20:30:32.537Z,16.33
2022-09-09T20:36:04.069Z,16.31
2022-09-09T20:41:35.654Z,16.27
2022-09-09T20:47:06.929Z,16.23
2022-09-09T20:58:07.667Z,16.12
2022-09-09T21:03:39.289Z,16.09
2022-09-09T21:09:10.695Z,16.16
2022-09-09T21:14:42.353Z,16.21
2022-09-09T21:17:06.404Z,16.29
2022-09-09T21:22:37.681Z,16.39
2022-09-09T21:28:08.993Z,16.50
2022-09-09T21:33:40.432Z,16.59
2022-09-09T21:39:11.665Z,16.68
2022-09-09T21:44:43.376Z,16.84
2022-09-09T21:52:27.699Z,16.95
2022-09-09T21:57:59.235Z,16.99
2022-09-09T22:03:30.405Z,17.05
2022-09-09T22:09:01.659Z,17.09
2022-09-09T22:14:33.022Z,17.09
2022-09-09T22:20:04.487Z,17.12
2022-09-09T22:22:28.165Z,17.12
2022-09-09T22:27:59.536Z,17.13
2022-09-09T22:33:30.913Z,17.06
2022-09-09T22:39:02.092Z,17.02
2022-09-09T22:44:33.532Z,16.95
2022-09-09T22:50:05.357Z,16.88
2022-09-09T22:55:36.802Z,16.72
2022-09-09T23:01:08.404Z,16.64
2022-09-09T23:06:39.636Z,16.50
2022-09-09T23:12:11.006Z,16.40
2022-09-09T23:17:42.521Z,16.34
2022-09-09T23:23:14.253Z,16.29
2022-09-09T23:28:45.783Z,16.20
2022-09-09T23:34:17.229Z,16.15
2022-09-09T23:39:48.669Z,16.00
2022-09-09T23:45:20.651Z,15.92
2022-09-09T23:50:52.057Z,15.75
2022-09-09T23:56:23.481Z,15.68
